Time;durP1;ratioP1;P1;durP2;ratioP2;P2;SDS_P1;SDS_P2;PMS_P1;PMS_P2;Temp;Humidity;BMP_temperature;BMP_pressure;BME280_temperature;BME280_humidity;BME280_pressure;Samples;Min_cycle;Max_cycle;Signal;HPM_P1;HPM_P2
2022/09/29 00:00:32;;;;;;;2.03;1.60;;;;;;;20.97;44.50;99980.78;5031255;28;20403;-70
2022/09/29 00:02:57;;;;;;;2.25;1.50;;;;;;;21.08;44.83;99993.41;5038170;28;20033;-69
2022/09/29 00:05:23;;;;;;;1.67;1.40;;;;;;;21.06;44.79;99997.28;5029015;28;20059;-69
2022/09/29 00:07:49;;;;;;;2.38;1.70;;;;;;;21.06;44.56;99997.28;5031122;28;20051;-69
2022/09/29 00:10:14;;;;;;;2.03;1.85;;;;;;;21.00;44.79;99990.97;5028533;28;20091;-69
2022/09/29 00:12:40;;;;;;;2.33;1.70;;;;;;;21.00;44.66;99998.91;5030686;28;20106;-69
2022/09/29 00:15:06;;;;;;;1.85;1.65;;;;;;;21.03;44.67;100000.34;5016085;28;20035;-69
2022/09/29 00:17:32;;;;;;;2.17;1.80;;;;;;;21.04;44.74;100004.63;5032976;28;20498;-70
2022/09/29 00:19:58;;;;;;;1.83;1.63;;;;;;;21.03;44.56;100003.00;5031560;28;20075;-70
2022/09/29 00:22:23;;;;;;;1.58;1.42;;;;;;;21.05;44.73;100006.25;5034542;28;20137;-70
2022/09/29 00:24:49;;;;;;;1.98;1.75;;;;;;;21.00;44.66;99998.09;5034547;28;20470;-70
2022/09/29 00:27:15;;;;;;;2.83;2.00;;;;;;;21.01;44.73;100000.56;5030815;28;20063;-69
2022/09/29 00:29:41;;;;;;;2.50;1.88;;;;;;;21.02;44.71;99996.88;5010271;28;20030;-70
2022/09/29 00:32:06;;;;;;;2.35;1.83;;;;;;;20.97;44.85;99996.66;5033795;28;20072;-70
2022/09/29 00:34:32;;;;;;;2.92;2.00;;;;;;;20.98;44.82;100003.59;5031299;28;20041;-70
2022/09/29 00:36:58;;;;;;;1.92;1.50;;;;;;;20.95;44.68;99993.41;5032310;28;20049;-70
2022/09/29 00:39:23;;;;;;;2.20;1.70;;;;;;;20.99;44.60;99997.28;5032201;28;20087;-70
2022/09/29 00:41:49;;;;;;;2.53;1.67;;;;;;;20.97;44.91;99995.84;5035194;28;20456;-70
2022/09/29 00:44:14;;;;;;;1.67;1.50;;;;;;;20.98;45.00;100000.13;5033886;28;20549;-70
2022/09/29 00:46:49;;;;;;;2.00;1.65;;;;;;;20.99;44.49;100005.22;5037567;28;20043;-69
2022/09/29 00:49:22;;;;;;;1.73;1.42;;;;;;;20.96;44.69;100012.75;5036645;28;20044;-69
2022/09/29 00:52:01;;;;;;;2.47;1.83;;;;;;;20.96;44.60;100002.97;5036450;28;20128;-69
2022/09/29 00:54:32;;;;;;;2.08;1.58;;;;;;;20.96;44.75;100004.81;5033666;28;20052;-69
2022/09/29 00:57:00;;;;;;;1.70;1.60;;;;;;;20.93;44.85;100010.53;5033047;28;20041;-70
2022/09/29 01:00:04;;;;;;;2.13;1.92;;;;;;;20.95;44.78;100008.47;5035401;28;20031;-70
2022/09/29 01:02:35;;;;;;;1.85;1.60;;;;;;;20.93;44.64;100006.03;5014539;28;20163;-69
2022/09/29 01:05:05;;;;;;;2.00;1.80;;;;;;;20.95;44.85;100005.84;5034560;28;20033;-70
2022/09/29 01:07:32;;;;;;;1.98;1.77;;;;;;;20.92;44.71;100001.78;5032933;28;20032;-70
2022/09/29 01:09:58;;;;;;;1.92;1.73;;;;;;;20.95;44.57;99998.72;5039903;28;20044;-70
2022/09/29 01:12:24;;;;;;;1.65;1.40;;;;;;;20.92;44.58;99996.47;5039236;28;20457;-70
2022/09/29 01:14:52;;;;;;;1.55;1.30;;;;;;;20.91;44.56;99997.50;5018075;28;20034;-70
2022/09/29 01:17:18;;;;;;;1.70;1.60;;;;;;;20.95;44.85;99998.72;5032542;28;20056;-70
2022/09/29 01:20:11;;;;;;;2.55;1.70;;;;;;;20.92;44.73;99998.31;5035600;28;20045;-70
2022/09/29 01:23:11;;;;;;;2.38;1.95;;;;;;;20.95;44.67;100001.34;5035477;28;20049;-70
2022/09/29 01:26:05;;;;;;;2.10;1.90;;;;;;;20.92;44.71;99993.84;5029247;28;20058;-70
2022/09/29 01:29:22;;;;;;;2.33;2.03;;;;;;;20.90;44.66;100003.00;5034074;28;20130;-70
2022/09/29 01:32:25;;;;;;;2.05;1.85;;;;;;;20.89;44.58;100001.38;5033194;28;20048;-70
2022/09/29 01:34:59;;;;;;;1.60;1.50;;;;;;;20.92;44.69;100003.63;5040018;28;20047;-70
2022/09/29 01:37:43;;;;;;;1.95;1.77;;;;;;;20.91;44.47;100008.09;5031914;28;20593;-70
2022/09/29 01:40:32;;;;;;;2.78;1.70;;;;;;;20.90;44.79;100013.59;5034543;28;21929;-70
2022/09/29 01:43:07;;;;;;;1.52;1.42;;;;;;;20.90;44.79;100011.75;5035368;28;20053;-70
2022/09/29 01:45:39;;;;;;;2.20;1.70;;;;;;;20.87;44.76;100006.06;5030716;28;20117;-70
2022/09/29 01:48:09;;;;;;;2.35;1.58;;;;;;;20.86;44.73;100007.09;5038731;28;20490;-70
2022/09/29 01:50:40;;;;;;;2.78;1.75;;;;;;;20.85;44.65;100003.63;5032807;28;20067;-70
2022/09/29 01:53:14;;;;;;;1.60;1.50;;;;;;;20.81;44.63;100011.16;5031906;28;20490;-70
2022/09/29 01:55:57;;;;;;;2.95;2.00;;;;;;;20.78;44.52;99993.03;5034095;28;20044;-70
2022/09/29 01:58:41;;;;;;;1.98;1.60;;;;;;;20.84;44.72;100006.47;5017197;28;20551;-70
2022/09/29 02:01:12;;;;;;;2.08;1.83;;;;;;;20.85;44.81;100013.41;5034756;28;20033;-70
2022/09/29 02:03:50;;;;;;;1.98;1.75;;;;;;;20.82;44.83;100001.38;5033143;28;20037;-70
2022/09/29 02:06:31;;;;;;;1.90;1.70;;;;;;;20.80;44.80;100003.41;5032512;28;20067;-70
2022/09/29 02:09:01;;;;;;;1.98;1.77;;;;;;;20.77;44.65;99996.72;5025694;28;20116;-70
2022/09/29 02:11:28;;;;;;;2.50;1.67;;;;;;;20.78;44.84;100000.97;5032054;28;20040;-70
2022/09/29 02:14:01;;;;;;;1.70;1.60;;;;;;;20.79;44.73;99996.50;5030684;28;20087;-70
2022/09/29 02:16:36;;;;;;;1.45;1.33;;;;;;;20.79;44.92;99999.16;5033963;28;20032;-69
2022/09/29 02:19:27;;;;;;;2.15;1.70;;;;;;;20.80;44.79;100000.78;5031043;28;20021;-70
2022/09/29 02:21:54;;;;;;;1.70;1.55;;;;;;;20.78;44.79;100003.63;5034189;28;20071;-70
2022/09/29 02:24:23;;;;;;;1.85;1.50;;;;;;;20.79;44.74;100004.44;5031149;28;20048;-70
2022/09/29 02:26:50;;;;;;;1.73;1.40;;;;;;;20.77;44.73;100019.72;5033065;28;20030;-69
2022/09/29 02:29:16;;;;;;;1.70;1.60;;;;;;;20.78;44.68;100010.75;5035078;28;20475;-69
2022/09/29 02:31:43;;;;;;;1.58;1.48;;;;;;;20.79;44.78;100010.53;5034480;28;20627;-69
2022/09/29 02:34:13;;;;;;;1.70;1.60;;;;;;;20.77;44.89;100017.88;5033639;28;20128;-69
2022/09/29 02:36:59;;;;;;;1.75;1.65;;;;;;;20.73;44.81;100014.00;5032321;28;20041;-68
2022/09/29 02:39:28;;;;;;;1.98;1.77;;;;;;;20.77;44.87;100014.41;5037104;28;20052;-69
2022/09/29 02:42:20;;;;;;;2.47;1.67;;;;;;;20.74;44.90;100022.75;5030173;28;20099;-69
2022/09/29 02:45:10;;;;;;;1.70;1.60;;;;;;;20.75;44.72;100016.47;5034841;28;20028;-69
2022/09/29 02:48:01;;;;;;;1.85;1.55;;;;;;;20.75;44.79;100019.09;5027679;28;20751;-71
2022/09/29 02:50:55;;;;;;;1.92;1.70;;;;;;;20.70;44.81;100016.25;5034426;28;20148;-71
2022/09/29 02:53:48;;;;;;;2.08;1.80;;;;;;;20.74;44.67;100015.63;5015728;28;20048;-70
2022/09/29 02:56:18;;;;;;;1.88;1.67;;;;;;;20.74;44.83;100017.47;5018277;28;20119;-70
2022/09/29 02:59:03;;;;;;;2.15;1.48;;;;;;;20.68;44.55;100013.00;5033607;28;20147;-71
2022/09/29 03:01:33;;;;;;;1.48;1.38;;;;;;;20.67;44.85;100020.13;5032641;28;20455;-71
2022/09/29 03:03:59;;;;;;;1.85;1.63;;;;;;;20.69;44.85;100023.38;5031490;28;20059;-71
2022/09/29 03:06:26;;;;;;;2.00;1.80;;;;;;;20.68;44.75;100018.31;5031236;28;20075;-70
2022/09/29 03:08:52;;;;;;;1.73;1.60;;;;;;;20.70;44.77;100021.56;5035924;28;20444;-71
2022/09/29 03:11:17;;;;;;;1.88;1.58;;;;;;;20.70;44.73;100024.19;5034706;28;20037;-68
2022/09/29 03:13:43;;;;;;;1.48;1.33;;;;;;;20.66;44.72;100026.44;5030603;28;20072;-70
2022/09/29 03:16:08;;;;;;;2.67;1.65;;;;;;;20.69;44.66;100025.22;5033394;28;20045;-71
2022/09/29 03:18:34;;;;;;;1.92;1.48;;;;;;;20.70;44.78;100021.56;5031666;28;20905;-71
2022/09/29 03:20:59;;;;;;;1.60;1.48;;;;;;;20.66;44.76;100025.63;5034085;28;20053;-70
2022/09/29 03:23:25;;;;;;;1.58;1.42;;;;;;;20.65;44.86;100029.31;5033080;28;20475;-70
2022/09/29 03:25:50;;;;;;;1.60;1.50;;;;;;;20.68;44.60;100031.53;5027273;28;20048;-71
2022/09/29 03:28:16;;;;;;;1.88;1.60;;;;;;;20.68;44.80;100026.25;5035422;28;20040;-71
2022/09/29 03:30:41;;;;;;;1.88;1.70;;;;;;;20.66;44.71;100034.38;5032180;28;20146;-71
2022/09/29 03:33:07;;;;;;;1.60;1.50;;;;;;;20.65;44.83;100035.41;5034516;28;20052;-71
2022/09/29 03:35:33;;;;;;;1.55;1.45;;;;;;;20.63;44.62;100028.66;5014100;28;20520;-71
2022/09/29 03:37:59;;;;;;;1.88;1.45;;;;;;;20.57;44.69;100022.38;5031565;28;20120;-69
2022/09/29 03:40:25;;;;;;;4.40;1.58;;;;;;;20.60;44.68;100027.25;5037431;28;20239;-71
2022/09/29 03:42:51;;;;;;;1.60;1.50;;;;;;;20.60;44.75;100032.53;5031557;28;21778;-70
2022/09/29 03:45:16;;;;;;;1.65;1.50;;;;;;;20.60;44.72;100037.81;5030865;28;20045;-71
2022/09/29 03:47:42;;;;;;;1.90;1.70;;;;;;;20.62;44.78;100037.63;5029616;28;20053;-70
2022/09/29 03:50:08;;;;;;;2.28;2.00;;;;;;;20.60;44.64;100037.00;5032824;28;20091;-71
2022/09/29 03:52:33;;;;;;;1.52;1.42;;;;;;;20.60;44.64;100037.00;5033645;28;20076;-71
2022/09/29 03:54:59;;;;;;;1.85;1.45;;;;;;;20.59;44.69;100035.38;5032243;28;20115;-72
2022/09/29 03:57:24;;;;;;;1.95;1.85;;;;;;;20.61;44.54;100041.28;5034075;28;20033;-71
2022/09/29 03:59:52;;;;;;;2.00;1.80;;;;;;;20.57;44.56;100040.88;5030776;28;20128;-71
2022/09/29 04:02:18;;;;;;;1.90;1.67;;;;;;;20.53;44.84;100044.97;5030248;28;20043;-70
2022/09/29 04:04:44;;;;;;;1.85;1.50;;;;;;;20.57;44.72;100053.28;5035169;28;20528;-70
2022/09/29 04:07:10;;;;;;;1.65;1.55;;;;;;;20.54;44.80;100049.22;5031632;28;20037;-71
2022/09/29 04:09:35;;;;;;;1.98;1.75;;;;;;;20.55;44.69;100055.31;5017464;28;20282;-71
2022/09/29 04:12:01;;;;;;;1.63;1.52;;;;;;;20.52;44.74;100054.72;5036373;28;20033;-71
2022/09/29 04:14:26;;;;;;;2.35;1.75;;;;;;;20.57;44.66;100056.75;5032657;28;20098;-69
2022/09/29 04:16:52;;;;;;;1.63;1.52;;;;;;;20.52;44.79;100060.00;5038150;28;20047;-70
2022/09/29 04:19:17;;;;;;;1.88;1.60;;;;;;;20.54;44.65;100056.34;5020486;28;20411;-71
2022/09/29 04:21:43;;;;;;;1.85;1.60;;;;;;;20.55;44.60;100057.97;5037651;28;20053;-71
2022/09/29 04:24:08;;;;;;;1.45;1.35;;;;;;;20.56;44.63;100060.41;5035663;28;20044;-71
2022/09/29 04:26:34;;;;;;;1.80;1.70;;;;;;;20.55;44.60;100053.50;5036980;28;20044;-71
2022/09/29 04:28:59;;;;;;;2.05;1.70;;;;;;;20.49;44.70;100051.66;5037421;28;20032;-71
2022/09/29 04:31:25;;;;;;;1.60;1.50;;;;;;;20.52;44.63;100061.84;5039035;28;20036;-71
2022/09/29 04:33:51;;;;;;;1.60;1.50;;;;;;;20.52;44.68;100060.00;5040065;28;20056;-69
2022/09/29 04:36:16;;;;;;;1.45;1.35;;;;;;;20.51;44.60;100061.03;5039899;28;20463;-69
2022/09/29 04:38:42;;;;;;;1.92;1.70;;;;;;;20.51;44.59;100061.03;5039506;28;20099;-69
2022/09/29 04:41:07;;;;;;;1.60;1.50;;;;;;;20.52;44.49;100062.66;5033866;28;20032;-69
2022/09/29 04:43:33;;;;;;;1.40;1.30;;;;;;;20.51;44.70;100070.78;5036166;28;20033;-69
2022/09/29 04:46:06;;;;;;;2.25;1.60;;;;;;;20.49;44.53;100063.06;5032567;28;20056;-69
2022/09/29 04:48:32;;;;;;;1.60;1.50;;;;;;;20.44;44.43;100065.47;5035445;28;20067;-69
2022/09/29 04:50:58;;;;;;;2.25;1.90;;;;;;;20.46;44.51;100066.09;5036992;28;20037;-69
2022/09/29 04:53:23;;;;;;;1.67;1.58;;;;;;;20.49;44.61;100064.91;5033478;28;20252;-69
2022/09/29 04:55:49;;;;;;;2.00;1.33;;;;;;;20.46;44.61;100055.50;5036107;28;20048;-69
2022/09/29 04:58:14;;;;;;;2.05;1.48;;;;;;;20.44;44.58;100068.13;5037010;28;20029;-69
2022/09/29 05:00:40;;;;;;;1.70;1.48;;;;;;;20.47;44.55;100065.09;5035709;28;21625;-69
2022/09/29 05:03:05;;;;;;;1.60;1.50;;;;;;;20.46;44.43;100063.44;5038553;28;20144;-69
2022/09/29 05:05:31;;;;;;;2.97;1.90;;;;;;;20.44;44.57;100068.13;5033134;28;20048;-69
2022/09/29 05:07:58;;;;;;;1.77;1.60;;;;;;;20.43;44.56;100070.97;5033928;28;20116;-70
2022/09/29 05:10:25;;;;;;;1.83;1.73;;;;;;;20.45;44.29;100071.59;5038589;28;20041;-69
2022/09/29 05:12:50;;;;;;;4.47;1.85;;;;;;;20.44;44.53;100069.94;5038926;28;20071;-69
2022/09/29 05:15:18;;;;;;;2.15;1.95;;;;;;;20.44;44.35;100065.47;5035485;28;20135;-69
2022/09/29 05:17:43;;;;;;;2.15;1.85;;;;;;;20.43;44.56;100073.63;5034982;28;20045;-69
2022/09/29 05:20:10;;;;;;;1.67;1.58;;;;;;;20.42;44.51;100064.88;5034380;28;20064;-69
2022/09/29 05:22:35;;;;;;;1.92;1.58;;;;;;;20.42;44.49;100064.06;5035323;28;20099;-69
2022/09/29 05:25:01;;;;;;;2.20;1.80;;;;;;;20.46;44.36;100075.84;5036208;28;20124;-69
2022/09/29 05:27:26;;;;;;;2.65;1.80;;;;;;;20.43;44.49;100078.91;5028911;28;21242;-69
2022/09/29 05:29:52;;;;;;;1.98;1.77;;;;;;;20.44;44.41;100086.63;5032617;28;20064;-69
2022/09/29 05:32:17;;;;;;;1.90;1.48;;;;;;;20.41;44.45;100076.47;5038479;28;20041;-68
2022/09/29 05:34:43;;;;;;;2.08;1.88;;;;;;;20.42;44.42;100083.38;5036816;28;20082;-69
2022/09/29 05:37:09;;;;;;;1.83;1.70;;;;;;;20.42;44.64;100075.44;5037067;28;20617;-69
2022/09/29 05:39:36;;;;;;;3.80;3.33;;;;;;;20.42;44.53;100083.38;5037295;28;20060;-69
2022/09/29 05:42:04;;;;;;;1.67;1.58;;;;;;;20.42;44.71;100082.56;5031809;28;20496;-69
2022/09/29 05:44:30;;;;;;;2.13;1.80;;;;;;;20.41;44.69;100089.69;5031590;28;20651;-70
2022/09/29 05:46:55;;;;;;;1.80;1.70;;;;;;;20.40;44.62;100095.97;5034495;28;20049;-71
2022/09/29 05:49:22;;;;;;;2.60;1.50;;;;;;;20.40;44.54;100093.31;5035689;28;20053;-70
2022/09/29 05:51:47;;;;;;;1.70;1.60;;;;;;;20.41;44.59;100094.97;5036674;28;20043;-69
2022/09/29 05:54:13;;;;;;;2.72;1.60;;;;;;;20.40;44.58;100093.31;5037483;28;20479;-69
2022/09/29 05:56:38;;;;;;;1.77;1.60;;;;;;;20.41;44.49;100094.97;5032760;28;20049;-71
2022/09/29 05:59:04;;;;;;;1.70;1.60;;;;;;;20.41;44.82;100099.44;5020781;28;20039;-70
2022/09/29 06:01:31;;;;;;;1.50;1.40;;;;;;;20.42;44.64;100104.53;5032886;28;20045;-71
2022/09/29 06:03:56;;;;;;;3.55;1.40;;;;;;;20.43;44.59;100102.72;5032758;28;20037;-71
2022/09/29 06:06:24;;;;;;;4.40;1.92;;;;;;;20.40;44.54;100101.25;5033461;28;20052;-70
2022/09/29 06:08:50;;;;;;;1.50;1.40;;;;;;;20.40;44.48;100098.59;5039956;28;20033;-71
2022/09/29 06:11:30;;;;;;;1.80;1.60;;;;;;;20.43;44.40;100111.44;5031202;28;20053;-69
2022/09/29 06:13:55;;;;;;;2.70;1.80;;;;;;;20.42;44.44;100117.75;5036054;28;20238;-69
2022/09/29 06:16:23;;;;;;;2.15;1.77;;;;;;;20.40;44.71;100117.13;5034967;28;20836;-69
2022/09/29 06:18:49;;;;;;;2.55;1.65;;;;;;;20.40;44.50;100117.13;5033982;28;20049;-69
2022/09/29 06:21:18;;;;;;;1.55;1.45;;;;;;;20.44;44.51;100123.66;5033242;28;20045;-68
2022/09/29 06:23:44;;;;;;;2.70;1.73;;;;;;;20.43;44.45;100121.22;5030023;28;20044;-70
2022/09/29 06:26:14;;;;;;;2.00;1.63;;;;;;;20.43;44.63;100124.69;5033359;28;20037;-70
2022/09/29 06:28:40;;;;;;;2.63;1.77;;;;;;;20.48;44.31;100130.19;5041264;28;20048;-71
2022/09/29 06:31:11;;;;;;;2.03;1.73;;;;;;;20.45;44.13;100137.69;5038471;28;20041;-70
2022/09/29 06:33:37;;;;;;;1.75;1.65;;;;;;;20.41;44.28;100134.66;5038066;28;20045;-70
2022/09/29 06:39:12;;;;;;;2.60;1.77;;;;;;;20.42;44.27;100146.03;5039009;28;20049;-70
2022/09/29 06:41:37;;;;;;;2.78;1.70;;;;;;;20.39;44.42;100144.56;5030079;28;20045;-70
2022/09/29 06:44:06;;;;;;;1.90;1.80;;;;;;;20.40;44.39;100148.03;5023406;28;20051;-69
2022/09/29 06:46:32;;;;;;;2.35;1.80;;;;;;;20.42;44.26;100151.31;5037825;28;20479;-70
2022/09/29 06:48:57;;;;;;;1.67;1.58;;;;;;;20.43;44.17;100151.13;5037427;28;20389;-69
2022/09/29 06:51:24;;;;;;;1.70;1.60;;;;;;;20.43;44.20;100153.75;5040723;28;20048;-69
2022/09/29 06:53:50;;;;;;;2.25;1.58;;;;;;;20.40;44.21;100151.50;5038458;28;20048;-70
2022/09/29 06:56:17;;;;;;;2.17;1.95;;;;;;;20.41;44.14;100169.03;5040481;28;20033;-70
2022/09/29 06:58:44;;;;;;;1.98;1.77;;;;;;;20.41;44.22;100160.28;5037752;28;20041;-69
2022/09/29 07:01:11;;;;;;;1.60;1.50;;;;;;;20.42;44.30;100161.91;5039095;28;20037;-70
2022/09/29 07:03:37;;;;;;;2.47;1.73;;;;;;;20.39;44.15;100152.50;5039525;28;20685;-70
2022/09/29 07:06:04;;;;;;;2.72;1.90;;;;;;;20.42;44.25;100165.38;5020883;28;20037;-70
2022/09/29 07:08:31;;;;;;;1.90;1.70;;;;;;;20.45;43.98;100170.25;5041616;28;20049;-70
2022/09/29 07:10:57;;;;;;;2.10;1.90;;;;;;;20.35;44.04;100143.34;5036100;28;20124;-70
2022/09/29 07:13:26;;;;;;;2.08;1.88;;;;;;;20.47;44.09;100178.81;5041806;28;20060;-70
2022/09/29 07:15:52;;;;;;;2.17;1.90;;;;;;;20.49;44.07;100168.03;5035090;28;20790;-70
2022/09/29 07:18:18;;;;;;;2.00;1.83;;;;;;;20.49;44.19;100186.56;5014391;28;20110;-70
2022/09/29 07:20:43;;;;;;;3.17;1.83;;;;;;;20.52;43.97;100186.16;5037406;28;20760;-70
2022/09/29 07:23:09;;;;;;;1.67;1.58;;;;;;;20.52;43.88;100186.16;5027445;28;20064;-70
2022/09/29 07:25:34;;;;;;;1.70;1.60;;;;;;;20.53;43.77;100187.78;5033731;28;20040;-69
2022/09/29 07:28:00;;;;;;;2.70;1.98;;;;;;;20.49;43.88;100187.38;5039184;28;20764;-70
2022/09/29 07:30:26;;;;;;;3.63;2.15;;;;;;;20.56;44.10;100190.03;5036086;28;20091;-70
2022/09/29 07:32:54;;;;;;;2.97;2.00;;;;;;;20.57;43.82;100189.00;5036711;28;20040;-69
2022/09/29 07:35:22;;;;;;;2.83;1.83;;;;;;;20.58;43.79;100195.94;5038543;28;20036;-69
2022/09/29 07:37:52;;;;;;;2.13;1.70;;;;;;;20.59;43.69;100202.84;5041135;28;20111;-69
2022/09/29 07:40:22;;;;;;;2.60;1.88;;;;;;;20.59;43.93;100196.75;5038347;28;20374;-70
2022/09/29 07:42:48;;;;;;;1.92;1.73;;;;;;;20.60;43.80;100196.53;5037916;28;20110;-70
2022/09/29 07:45:14;;;;;;;1.83;1.73;;;;;;;20.63;43.85;100203.25;5039156;28;20120;-70
2022/09/29 07:47:40;;;;;;;2.58;1.80;;;;;;;20.63;43.67;100198.78;5038000;28;20048;-69
2022/09/29 07:50:05;;;;;;;2.92;1.90;;;;;;;20.65;43.81;100199.41;5035759;28;20044;-69
2022/09/29 07:52:31;;;;;;;2.85;1.85;;;;;;;20.65;43.30;100191.47;5019674;28;20037;-70
2022/09/29 07:54:56;;;;;;;2.08;1.58;;;;;;;20.69;43.60;100205.94;5038738;28;20033;-69
2022/09/29 07:57:22;;;;;;;2.67;1.75;;;;;;;20.68;43.80;100208.78;5038524;28;20049;-69
2022/09/29 07:59:47;;;;;;;2.28;1.77;;;;;;;20.71;43.64;100211.03;5038279;28;20502;-70
2022/09/29 08:02:14;;;;;;;2.70;1.65;;;;;;;20.72;43.52;100215.31;5032461;28;20084;-70
2022/09/29 08:04:39;;;;;;;2.05;1.65;;;;;;;20.73;43.63;100220.38;5038363;28;20606;-70
2022/09/29 08:07:05;;;;;;;1.85;1.60;;;;;;;20.74;43.51;100213.25;5037049;28;20029;-69
2022/09/29 08:09:30;;;;;;;1.80;1.67;;;;;;;20.73;43.55;100228.31;5019487;28;20041;-69
2022/09/29 08:11:55;;;;;;;1.88;1.67;;;;;;;20.76;43.54;100225.28;5036331;28;20047;-69
2022/09/29 08:14:21;;;;;;;4.38;1.73;;;;;;;20.76;43.54;100230.56;5035755;28;20045;-68
2022/09/29 08:16:47;;;;;;;1.88;1.73;;;;;;;20.77;43.59;100224.25;5040387;28;20627;-69
2022/09/29 08:19:13;;;;;;;1.75;1.45;;;;;;;20.74;43.56;100224.66;5034656;28;20037;-69
2022/09/29 08:21:38;;;;;;;1.98;1.77;;;;;;;20.79;43.66;100229.34;5038708;28;20068;-70
2022/09/29 08:24:05;;;;;;;1.63;1.50;;;;;;;20.80;43.42;100229.16;5035776;28;20032;-69
2022/09/29 08:26:34;;;;;;;1.60;1.50;;;;;;;20.81;43.43;100227.31;5037938;28;20045;-69
2022/09/29 08:29:01;;;;;;;2.72;1.58;;;;;;;20.77;43.39;100223.44;5040532;28;20644;-70
2022/09/29 08:31:27;;;;;;;1.65;1.45;;;;;;;20.79;43.35;100229.34;5038817;28;20041;-68
2022/09/29 08:33:57;;;;;;;1.27;1.25;;;;;;;20.82;43.47;100242.16;5037344;28;20195;-70
2022/09/29 08:36:23;;;;;;;2.33;1.50;;;;;;;20.82;43.54;100242.16;5031218;28;20048;-70
2022/09/29 08:38:50;;;;;;;1.70;1.52;;;;;;;20.80;43.62;100241.56;5038104;28;20063;-70
2022/09/29 08:41:32;;;;;;;2.13;1.58;;;;;;;20.85;43.32;100240.97;5039014;28;20437;-69
2022/09/29 08:44:26;;;;;;;2.15;1.90;;;;;;;20.85;43.53;100240.97;5036968;28;20173;-70
2022/09/29 08:47:23;;;;;;;1.45;1.35;;;;;;;20.87;43.33;100249.53;5020552;28;20063;-71
2022/09/29 08:50:11;;;;;;;2.88;1.70;;;;;;;20.83;43.59;100245.66;5030008;28;20099;-69
2022/09/29 08:52:40;;;;;;;1.70;1.60;;;;;;;20.76;43.79;100235.03;5035690;28;20036;-69
2022/09/29 08:55:15;;;;;;;1.70;1.60;;;;;;;20.81;43.72;100251.13;5032528;28;20858;-69
2022/09/29 08:57:41;;;;;;;2.33;1.63;;;;;;;20.86;43.53;100251.38;5033927;28;20170;-69
2022/09/29 09:00:11;;;;;;;4.35;1.77;;;;;;;20.85;43.40;100246.28;5036754;28;20032;-69
2022/09/29 09:03:14;;;;;;;1.88;1.67;;;;;;;20.86;43.44;100255.84;5032652;28;20140;-68
2022/09/29 09:06:00;;;;;;;1.92;1.48;;;;;;;20.88;43.58;100259.91;5033357;28;20028;-68
2022/09/29 09:08:25;;;;;;;2.13;1.60;;;;;;;20.86;43.51;100258.50;5036080;28;20121;-68
2022/09/29 09:11:18;;;;;;;1.60;1.50;;;;;;;20.88;43.44;100259.91;5034940;28;20033;-68
2022/09/29 09:14:18;;;;;;;2.13;1.92;;;;;;;20.88;43.37;100261.75;5032045;28;20468;-69
2022/09/29 09:17:15;;;;;;;1.83;1.60;;;;;;;20.88;43.27;100264.41;5039753;28;20563;-69
2022/09/29 09:19:46;;;;;;;3.40;1.98;;;;;;;20.85;43.22;100264.81;5037427;28;20126;-69
2022/09/29 09:22:29;;;;;;;1.63;1.52;;;;;;;20.83;43.39;100262.34;5041478;28;20037;-69
2022/09/29 09:25:26;;;;;;;1.85;1.52;;;;;;;20.87;43.37;100274.16;5038601;28;22138;-69
2022/09/29 09:28:13;;;;;;;2.08;1.50;;;;;;;20.85;43.37;100270.91;5039540;28;20143;-69
2022/09/29 09:30:50;;;;;;;2.20;1.50;;;;;;;20.87;43.40;100276.81;5036251;28;20521;-69
2022/09/29 09:33:26;;;;;;;2.10;1.83;;;;;;;20.86;43.25;100272.53;5039073;28;20411;-69
2022/09/29 09:35:57;;;;;;;1.80;1.27;;;;;;;20.85;43.23;100273.56;5041276;28;20036;-70
2022/09/29 09:38:27;;;;;;;1.90;1.70;;;;;;;20.87;43.25;100274.16;5038540;28;20486;-69
2022/09/29 09:40:56;;;;;;;2.55;1.90;;;;;;;20.88;43.13;100269.69;5037884;28;20052;-69
2022/09/29 09:43:39;;;;;;;2.55;1.70;;;;;;;20.86;43.25;100269.88;5041423;28;20082;-69
2022/09/29 09:46:25;;;;;;;1.50;1.40;;;;;;;20.90;43.28;100272.94;5036444;28;20262;-69
2022/09/29 09:48:54;;;;;;;2.35;1.80;;;;;;;20.90;43.05;100271.13;5040222;28;20116;-69
2022/09/29 09:51:38;;;;;;;1.65;1.35;;;;;;;20.88;43.22;100274.97;5037681;28;20036;-69
2022/09/29 09:54:10;;;;;;;2.22;1.60;;;;;;;20.80;43.35;100260.09;5038608;28;20121;-69
2022/09/29 09:56:46;;;;;;;2.83;1.52;;;;;;;20.89;43.30;100271.31;5033204;28;20589;-69
2022/09/29 09:59:27;;;;;;;2.58;1.73;;;;;;;20.83;43.11;100272.94;5037833;28;20459;-69
2022/09/29 10:01:53;;;;;;;1.67;1.45;;;;;;;20.87;43.32;100279.47;5032914;28;20037;-68
2022/09/29 10:04:18;;;;;;;2.28;1.60;;;;;;;20.90;43.22;100275.59;5036919;28;20044;-68
2022/09/29 10:06:44;;;;;;;2.35;1.55;;;;;;;20.80;43.25;100270.66;5017546;28;20044;-69
2022/09/29 10:09:14;;;;;;;1.63;1.42;;;;;;;20.89;43.27;100277.44;5035716;28;20028;-69
2022/09/29 10:11:42;;;;;;;2.63;1.40;;;;;;;20.88;43.24;100282.91;5035011;28;20048;-70
2022/09/29 10:14:18;;;;;;;1.85;1.30;;;;;;;20.90;43.44;100280.88;5033617;28;20045;-68
2022/09/29 10:16:46;;;;;;;2.30;1.67;;;;;;;20.86;43.23;100277.00;5032943;28;20435;-69
2022/09/29 10:19:12;;;;;;;2.28;1.50;;;;;;;20.88;43.28;100282.91;5040295;28;20810;-69
2022/09/29 10:21:40;;;;;;;1.75;1.52;;;;;;;20.87;43.29;100282.09;5018470;28;20079;-69
2022/09/29 10:24:32;;;;;;;1.60;1.50;;;;;;;20.84;43.15;100273.75;5033943;28;20557;-69
2022/09/29 10:26:59;;;;;;;1.92;1.65;;;;;;;20.79;42.23;100288.38;5015561;28;21583;-69
2022/09/29 10:29:41;;;;;;;1.77;1.38;;;;;;;20.84;42.47;100287.00;5034115;28;20118;-68
2022/09/29 10:32:20;;;;;;;3.05;1.60;;;;;;;20.85;42.98;100284.13;5029132;28;20044;-69
2022/09/29 10:34:53;;;;;;;1.50;1.30;;;;;;;20.85;42.91;100283.31;5034421;28;20068;-69
2022/09/29 10:37:41;;;;;;;2.15;1.17;;;;;;;20.81;43.19;100289.00;5031043;28;20041;-69
2022/09/29 10:40:07;;;;;;;1.30;1.10;;;;;;;20.85;43.16;100297.38;5035595;28;20055;-69
2022/09/29 10:42:40;;;;;;;3.08;1.42;;;;;;;20.88;43.25;100296.97;5034883;28;20033;-69
2022/09/29 10:45:23;;;;;;;1.23;1.13;;;;;;;20.88;43.02;100291.69;5032421;28;20047;-69
2022/09/29 10:47:57;;;;;;;2.75;1.42;;;;;;;20.87;42.88;100299.81;5035006;28;20041;-69
2022/09/29 10:50:29;;;;;;;1.42;1.23;;;;;;;20.86;43.06;100303.47;5034234;28;20028;-69
2022/09/29 10:52:57;;;;;;;2.28;1.27;;;;;;;20.88;43.25;100302.25;5032196;28;20052;-69
2022/09/29 10:55:27;;;;;;;1.63;1.10;;;;;;;20.88;43.33;100298.81;5032662;28;20130;-69
2022/09/29 10:57:57;;;;;;;1.20;1.10;;;;;;;20.88;43.13;100310.19;5032478;28;20037;-69
2022/09/29 11:00:28;;;;;;;1.35;1.05;;;;;;;20.87;43.40;100305.94;5029927;28;20806;-70
2022/09/29 11:03:01;;;;;;;1.23;1.13;;;;;;;20.88;43.21;100306.75;5032650;28;20044;-69
2022/09/29 11:05:27;;;;;;;1.60;1.35;;;;;;;20.90;43.25;100310.81;5036313;28;20120;-69
2022/09/29 11:07:53;;;;;;;0.98;0.98;;;;;;;20.90;43.12;100307.34;5033568;28;20047;-69
2022/09/29 11:10:32;;;;;;;0.90;0.88;;;;;;;20.89;43.26;100314.47;5029859;28;20049;-70
2022/09/29 11:12:59;;;;;;;1.88;1.35;;;;;;;20.75;43.48;100295.09;5032237;28;20071;-69
2022/09/29 11:15:28;;;;;;;1.50;1.20;;;;;;;20.88;43.32;100315.50;5034152;28;20123;-69
2022/09/29 11:17:55;;;;;;;1.85;1.00;;;;;;;20.90;43.19;100310.81;5033424;28;20068;-70
2022/09/29 11:20:28;;;;;;;2.70;1.10;;;;;;;20.92;43.26;100322.00;5031547;28;20056;-74
2022/09/29 11:22:56;;;;;;;1.75;1.25;;;;;;;20.89;43.57;100311.84;5030614;28;20147;-69
2022/09/29 11:25:57;;;;;;;1.17;1.00;;;;;;;20.94;43.33;100313.88;5028943;28;20051;-71
2022/09/29 11:28:46;;;;;;;0.95;0.95;;;;;;;20.89;43.63;100321.59;5032908;28;20060;-70
2022/09/29 11:31:30;;;;;;;1.65;1.02;;;;;;;20.92;43.57;100322.00;5035257;28;20041;-70
2022/09/29 11:34:21;;;;;;;0.95;0.85;;;;;;;20.92;43.32;100321.19;5038359;28;20124;-70
2022/09/29 11:36:59;;;;;;;0.70;0.70;;;;;;;20.89;43.28;100314.47;5034462;28;20044;-69
2022/09/29 11:39:56;;;;;;;1.52;1.05;;;;;;;20.89;43.45;100314.47;5039211;28;20064;-69
2022/09/29 11:43:00;;;;;;;1.38;1.05;;;;;;;20.90;43.42;100317.94;5035168;28;20040;-69
2022/09/29 11:45:52;;;;;;;2.42;1.20;;;;;;;20.92;43.60;100315.91;5016850;28;20048;-69
2022/09/29 11:48:28;;;;;;;1.48;1.00;;;;;;;20.92;43.63;100318.56;5038391;28;20070;-69